Time;durP1;ratioP1;P1;durP2;ratioP2;P2;SDS_P1;SDS_P2;PMS_P1;PMS_P2;Temp;Humidity;BMP_temperature;BMP_pressure;BME280_temperature;BME280_humidity;BME280_pressure;Samples;Min_cycle;Max_cycle;Signal;HPM_P1;HPM_P2
2023/04/15 00:00:43;;;;;;;2.35;1.10;;;2.70;60.40;;;;;;4945777;29;20531;-73
2023/04/15 00:03:11;;;;;;;6.10;1.13;;;2.70;60.90;;;;;;4951991;29;20089;-72
2023/04/15 00:05:38;;;;;;;2.45;1.35;;;2.70;60.40;;;;;;4950007;29;20054;-73
2023/04/15 00:08:06;;;;;;;3.55;0.98;;;2.70;60.10;;;;;;4948508;28;20074;-73
2023/04/15 00:10:34;;;;;;;4.95;1.40;;;2.60;60.00;;;;;;4943029;29;20086;-72
2023/04/15 00:13:03;;;;;;;2.75;1.00;;;2.60;60.20;;;;;;4915940;29;20091;-73
2023/04/15 00:15:30;;;;;;;2.17;1.30;;;2.60;60.70;;;;;;4952629;29;20050;-73
2023/04/15 00:17:57;;;;;;;5.38;1.27;;;2.60;60.60;;;;;;4952858;28;20054;-73
2023/04/15 00:20:25;;;;;;;4.40;1.83;;;2.60;60.40;;;;;;4934561;29;20528;-73
2023/04/15 00:22:53;;;;;;;5.38;1.35;;;2.60;60.10;;;;;;4953152;29;20110;-72
2023/04/15 00:25:21;;;;;;;1.92;1.08;;;2.60;59.80;;;;;;4951568;29;20103;-76
2023/04/15 00:27:48;;;;;;;2.17;1.23;;;2.60;60.40;;;;;;4950266;29;20077;-78
2023/04/15 00:30:17;;;;;;;6.88;1.52;;;2.60;60.40;;;;;;4934372;29;20114;-76
2023/04/15 00:32:45;;;;;;;3.60;1.08;;;2.60;60.30;;;;;;4950363;29;20149;-74
2023/04/15 00:35:13;;;;;;;2.80;1.45;;;2.60;60.00;;;;;;4950201;29;20496;-73
2023/04/15 00:37:40;;;;;;;4.07;1.30;;;2.60;60.40;;;;;;4934697;29;20050;-74
2023/04/15 00:40:13;;;;;;;3.70;1.40;;;2.60;60.60;;;;;;4947919;29;20050;-73
2023/04/15 00:42:41;;;;;;;2.10;1.40;;;2.60;60.60;;;;;;4919616;29;20055;-71
2023/04/15 00:45:10;;;;;;;3.85;1.30;;;2.60;60.60;;;;;;4935230;29;20546;-73
2023/04/15 00:47:41;;;;;;;4.03;2.00;;;2.50;60.70;;;;;;4951445;29;20110;-73
2023/04/15 00:50:09;;;;;;;2.47;1.88;;;2.50;60.70;;;;;;4949203;28;20065;-73
2023/04/15 00:52:37;;;;;;;4.45;2.15;;;2.50;60.90;;;;;;4952194;28;20047;-73
2023/04/15 00:55:07;;;;;;;4.25;1.95;;;2.50;60.60;;;;;;4950755;28;20051;-73
2023/04/15 00:57:36;;;;;;;7.63;2.17;;;2.50;60.40;;;;;;4950921;28;20514;-72
2023/04/15 01:00:06;;;;;;;5.63;1.90;;;2.50;60.90;;;;;;4953206;29;20074;-76
2023/04/15 01:02:35;;;;;;;2.42;1.50;;;2.50;60.80;;;;;;4950423;29;20058;-76
2023/04/15 01:05:06;;;;;;;4.32;1.70;;;2.50;60.60;;;;;;4951361;28;20078;-77
2023/04/15 01:07:33;;;;;;;4.18;1.90;;;2.50;60.80;;;;;;4949796;29;20055;-74
2023/04/15 01:10:02;;;;;;;2.72;1.77;;;2.50;60.80;;;;;;4951800;29;20051;-77
2023/04/15 01:12:33;;;;;;;6.63;1.73;;;2.50;61.10;;;;;;4948300;29;20066;-76
2023/04/15 01:15:01;;;;;;;1.40;1.27;;;2.50;61.40;;;;;;4933423;29;20184;-76
2023/04/15 01:17:30;;;;;;;2.42;1.67;;;2.50;61.10;;;;;;4951597;29;20043;-77
2023/04/15 01:19:58;;;;;;;9.10;1.85;;;2.40;61.20;;;;;;4939601;29;20071;-77
2023/04/15 01:22:27;;;;;;;8.90;1.95;;;2.40;61.70;;;;;;4933922;29;20075;-76
2023/04/15 01:25:07;;;;;;;4.55;1.85;;;2.40;61.80;;;;;;4945226;29;20082;-77
2023/04/15 01:27:39;;;;;;;2.17;1.60;;;2.40;61.50;;;;;;4950163;28;20164;-76
2023/04/15 01:30:10;;;;;;;1.88;1.27;;;2.30;62.50;;;;;;4947851;29;20047;-76
2023/04/15 01:32:38;;;;;;;2.40;1.42;;;2.30;62.10;;;;;;4944968;28;20578;-76
2023/04/15 01:35:24;;;;;;;1.83;1.20;;;2.30;62.10;;;;;;4928383;29;20190;-76
2023/04/15 01:37:53;;;;;;;3.85;1.77;;;2.30;62.10;;;;;;4934255;29;20046;-77
2023/04/15 01:40:21;;;;;;;3.40;2.00;;;2.30;62.20;;;;;;4951314;29;20059;-76
2023/04/15 01:42:51;;;;;;;3.78;1.55;;;2.30;62.80;;;;;;4949488;29;20113;-78
2023/04/15 01:45:20;;;;;;;1.83;1.23;;;2.30;62.40;;;;;;4950848;28;20062;-76
2023/04/15 01:47:49;;;;;;;1.98;1.30;;;2.30;62.30;;;;;;4950911;29;20431;-77
2023/04/15 01:50:19;;;;;;;3.60;1.67;;;2.30;62.30;;;;;;4942233;29;20126;-75
2023/04/15 01:52:48;;;;;;;4.75;2.22;;;2.30;62.60;;;;;;4950922;29;20591;-77
2023/04/15 01:55:17;;;;;;;2.78;1.25;;;2.30;62.50;;;;;;4933609;29;20058;-76
2023/04/15 01:57:47;;;;;;;2.22;1.48;;;2.30;62.80;;;;;;4932840;29;20526;-76
2023/04/15 02:00:17;;;;;;;5.22;1.65;;;2.30;62.50;;;;;;4920940;29;20431;-76
2023/04/15 02:02:46;;;;;;;5.05;1.70;;;2.30;62.40;;;;;;4954289;29;20055;-76
2023/04/15 02:05:15;;;;;;;5.18;1.60;;;2.30;62.60;;;;;;4955034;29;20514;-76
2023/04/15 02:07:49;;;;;;;3.50;1.35;;;2.30;62.80;;;;;;4936368;29;20158;-75
2023/04/15 02:10:17;;;;;;;3.33;1.50;;;2.30;62.20;;;;;;4952783;28;20065;-77
2023/04/15 02:12:46;;;;;;;3.63;1.42;;;2.30;61.90;;;;;;4936903;29;20058;-76
2023/04/15 02:15:15;;;;;;;2.40;1.70;;;2.30;62.00;;;;;;4952323;28;20070;-76
2023/04/15 02:17:49;;;;;;;2.40;1.40;;;2.30;62.10;;;;;;4945930;29;20458;-76
2023/04/15 02:20:21;;;;;;;3.20;1.30;;;2.30;62.70;;;;;;4936558;29;20055;-76
2023/04/15 02:22:50;;;;;;;2.83;1.83;;;2.40;62.40;;;;;;4954396;29;20055;-77
2023/04/15 02:25:19;;;;;;;2.30;1.40;;;2.40;62.20;;;;;;4937015;29;20415;-77
2023/04/15 02:27:48;;;;;;;1.67;1.30;;;2.40;62.00;;;;;;4953606;29;20043;-76
2023/04/15 02:30:19;;;;;;;2.97;1.67;;;2.30;61.70;;;;;;4937133;29;20058;-76
2023/04/15 02:32:49;;;;;;;2.90;1.70;;;2.30;61.90;;;;;;4954030;29;20416;-76
2023/04/15 02:35:18;;;;;;;2.88;1.55;;;2.40;62.40;;;;;;4952483;29;20179;-78
2023/04/15 02:37:47;;;;;;;3.35;1.30;;;2.40;62.30;;;;;;4937258;29;20524;-78
2023/04/15 02:40:15;;;;;;;4.93;1.25;;;2.40;62.00;;;;;;4937425;29;20057;-77
2023/04/15 02:42:44;;;;;;;2.85;1.40;;;2.40;61.90;;;;;;4953520;29;20055;-77
2023/04/15 02:45:18;;;;;;;2.83;1.88;;;2.40;62.00;;;;;;4952442;29;20063;-78
2023/04/15 02:47:51;;;;;;;3.33;1.63;;;2.40;61.90;;;;;;4934409;29;20066;-77
2023/04/15 02:50:22;;;;;;;5.35;1.67;;;2.40;61.70;;;;;;4942154;29;20055;-77
2023/04/15 02:52:51;;;;;;;2.38;1.60;;;2.40;61.50;;;;;;4953565;28;20055;-73
2023/04/15 02:55:19;;;;;;;4.15;1.40;;;2.40;61.60;;;;;;4937329;29;20058;-74
2023/04/15 02:57:48;;;;;;;5.15;1.27;;;2.40;61.80;;;;;;4951446;29;20059;-74
2023/04/15 03:00:17;;;;;;;2.70;1.58;;;2.50;61.20;;;;;;4937442;29;20512;-73
2023/04/15 03:02:50;;;;;;;4.22;1.52;;;2.40;61.20;;;;;;4936956;29;20078;-73
2023/04/15 03:05:20;;;;;;;2.88;1.55;;;2.50;61.50;;;;;;4936631;29;20055;-73
2023/04/15 03:07:52;;;;;;;3.42;1.50;;;2.50;60.80;;;;;;4947888;29;20053;-73
2023/04/15 03:10:21;;;;;;;7.72;1.67;;;2.50;61.00;;;;;;4937130;29;20055;-73
2023/04/15 03:12:50;;;;;;;4.53;1.42;;;2.50;60.90;;;;;;4924705;29;20056;-73
2023/04/15 03:15:21;;;;;;;2.20;1.23;;;2.50;60.60;;;;;;4933630;29;20063;-75
2023/04/15 03:17:53;;;;;;;4.17;1.37;;;2.60;60.30;;;;;;4937691;29;20143;-73
2023/04/15 03:20:23;;;;;;;2.53;1.73;;;2.60;60.10;;;;;;4935814;29;20047;-73
2023/04/15 03:22:52;;;;;;;2.83;1.17;;;2.60;60.30;;;;;;4953240;29;20074;-74
2023/04/15 03:25:22;;;;;;;6.85;1.48;;;2.60;60.40;;;;;;4937712;29;20055;-73
2023/04/15 03:27:51;;;;;;;3.58;1.20;;;2.60;60.40;;;;;;4951806;29;20054;-73
2023/04/15 03:30:20;;;;;;;2.13;1.25;;;2.60;60.40;;;;;;4949172;29;20407;-72
2023/04/15 03:32:49;;;;;;;4.13;1.48;;;2.70;60.70;;;;;;4946796;29;20047;-73
2023/04/15 03:35:18;;;;;;;7.10;1.33;;;2.70;60.00;;;;;;4947851;29;20387;-73
2023/04/15 03:37:48;;;;;;;7.38;1.85;;;2.70;60.10;;;;;;4952819;28;20057;-72
2023/04/15 03:40:16;;;;;;;4.35;1.70;;;2.80;60.30;;;;;;4948953;29;20047;-73
2023/04/15 03:42:45;;;;;;;4.28;1.95;;;2.80;60.20;;;;;;4952065;29;20047;-73
2023/04/15 03:45:14;;;;;;;4.45;1.10;;;2.80;60.10;;;;;;4952718;29;20147;-73
2023/04/15 03:47:42;;;;;;;3.10;1.70;;;2.80;59.90;;;;;;4954457;29;20515;-73
2023/04/15 03:50:11;;;;;;;2.97;1.77;;;2.80;60.00;;;;;;4935430;29;20062;-73
2023/04/15 03:52:39;;;;;;;4.40;1.52;;;2.80;60.60;;;;;;4954125;28;20059;-73
2023/04/15 03:55:10;;;;;;;2.08;1.38;;;2.80;60.00;;;;;;4953277;29;20047;-77
2023/04/15 03:57:38;;;;;;;3.30;1.80;;;2.80;59.90;;;;;;4947294;28;20059;-76
2023/04/15 04:00:09;;;;;;;3.40;1.50;;;2.90;59.80;;;;;;4944304;28;20050;-76
2023/04/15 04:02:41;;;;;;;5.88;1.52;;;2.90;59.80;;;;;;4947998;28;20492;-77
2023/04/15 04:05:10;;;;;;;5.18;2.30;;;3.00;60.00;;;;;;4951200;28;20428;-75
2023/04/15 04:07:38;;;;;;;2.40;1.45;;;3.00;59.90;;;;;;4944633;29;20047;-75
2023/04/15 04:10:09;;;;;;;4.65;1.80;;;3.10;59.60;;;;;;4947516;28;20053;-77
2023/04/15 04:12:38;;;;;;;3.58;1.63;;;3.10;59.40;;;;;;4953356;28;20085;-76
2023/04/15 04:15:08;;;;;;;3.95;1.45;;;3.10;59.40;;;;;;4941592;29;20047;-78
2023/04/15 04:17:36;;;;;;;7.85;2.17;;;3.10;59.00;;;;;;4946947;29;20062;-77
2023/04/15 04:20:06;;;;;;;5.32;1.77;;;3.10;59.20;;;;;;4941468;29;21922;-77
2023/04/15 04:22:38;;;;;;;3.97;1.60;;;3.20;59.00;;;;;;4952742;29;20051;-77
2023/04/15 04:25:10;;;;;;;2.45;1.35;;;3.20;59.40;;;;;;4949871;28;20059;-76
2023/04/15 04:27:39;;;;;;;18.33;2.42;;;3.30;59.10;;;;;;4943643;28;20050;-75
2023/04/15 04:30:09;;;;;;;4.53;2.00;;;3.40;59.30;;;;;;4947541;28;20050;-76
2023/04/15 04:32:37;;;;;;;7.82;2.22;;;3.50;59.00;;;;;;4938343;29;20059;-80
2023/04/15 04:35:07;;;;;;;4.72;2.13;;;3.50;59.00;;;;;;4952431;29;20059;-80
2023/04/15 04:37:35;;;;;;;8.43;2.00;;;3.60;58.70;;;;;;4951898;29;20055;-76
2023/04/15 04:40:07;;;;;;;7.57;2.40;;;3.60;58.70;;;;;;4947804;29;20049;-77
2023/04/15 04:42:43;;;;;;;5.18;1.90;;;3.70;58.40;;;;;;4941770;28;20078;-74
2023/04/15 04:45:14;;;;;;;6.90;2.42;;;3.60;58.50;;;;;;4939488;29;20061;-74
2023/04/15 04:47:43;;;;;;;4.03;1.92;;;3.60;58.70;;;;;;4946336;29;20496;-76
2023/04/15 04:50:12;;;;;;;7.28;2.53;;;3.60;58.30;;;;;;4926383;29;20055;-74
2023/04/15 04:52:40;;;;;;;5.70;1.98;;;3.60;58.40;;;;;;4952258;29;20057;-76
2023/04/15 04:55:10;;;;;;;4.25;2.53;;;3.70;58.40;;;;;;4952344;29;20047;-75
2023/04/15 04:57:41;;;;;;;4.28;1.95;;;3.80;58.30;;;;;;4953057;29;20051;-76
2023/04/15 05:00:11;;;;;;;9.68;2.47;;;3.80;58.00;;;;;;4937846;28;20423;-76
2023/04/15 05:02:41;;;;;;;5.15;2.05;;;3.90;58.00;;;;;;4949860;28;20424;-75
2023/04/15 05:05:10;;;;;;;7.20;2.53;;;3.90;58.30;;;;;;4952499;28;20043;-82
2023/04/15 05:07:39;;;;;;;5.82;2.45;;;4.10;57.90;;;;;;4946779;29;20058;-76
2023/04/15 05:10:10;;;;;;;10.07;2.15;;;4.20;57.50;;;;;;4946688;29;20416;-77
2023/04/15 05:12:40;;;;;;;4.05;1.48;;;4.20;57.60;;;;;;4951063;28;20055;-75
2023/04/15 05:15:10;;;;;;;7.65;1.77;;;4.30;57.60;;;;;;4946854;28;20047;-76
2023/04/15 05:17:39;;;;;;;8.63;2.10;;;4.40;57.70;;;;;;4932046;29;20064;-77
2023/04/15 05:20:09;;;;;;;8.18;1.80;;;4.50;57.60;;;;;;4928179;29;20051;-75
2023/04/15 05:22:38;;;;;;;14.38;2.97;;;4.50;57.10;;;;;;4948377;29;20051;-75
2023/04/15 05:25:11;;;;;;;3.63;2.05;;;4.60;56.80;;;;;;4949527;29;20506;-76
2023/04/15 05:27:41;;;;;;;9.18;1.58;;;4.70;56.70;;;;;;4946839;29;20051;-75
2023/04/15 05:30:11;;;;;;;4.72;1.70;;;4.80;57.10;;;;;;4949250;29;20057;-76
2023/04/15 05:32:39;;;;;;;3.50;1.67;;;5.00;56.80;;;;;;4946625;29;20058;-75
2023/04/15 05:35:08;;;;;;;7.18;1.75;;;5.10;55.60;;;;;;4943369;29;20047;-77
2023/04/15 05:37:37;;;;;;;6.15;1.60;;;5.10;55.40;;;;;;4948915;29;20053;-75
2023/04/15 05:40:09;;;;;;;6.70;1.92;;;5.30;55.30;;;;;;4948736;29;20051;-75
2023/04/15 05:42:38;;;;;;;8.10;1.90;;;5.40;54.90;;;;;;4922619;29;20070;-76
2023/04/15 05:45:08;;;;;;;5.75;1.42;;;5.50;54.50;;;;;;4949901;29;20046;-76
2023/04/15 05:47:37;;;;;;;12.73;1.85;;;5.70;54.00;;;;;;4950545;29;20515;-76
2023/04/15 05:50:07;;;;;;;2.80;1.42;;;5.70;53.60;;;;;;4932418;29;20071;-75
2023/04/15 05:52:36;;;;;;;6.97;2.30;;;5.70;53.50;;;;;;4950932;28;20538;-79
2023/04/15 05:55:06;;;;;;;3.25;1.55;;;5.70;53.80;;;;;;4951996;29;20500;-81
2023/04/15 05:57:35;;;;;;;3.65;1.40;;;5.80;53.50;;;;;;4950342;29;20059;-82
2023/04/15 06:00:05;;;;;;;4.97;1.63;;;5.90;52.90;;;;;;4949217;29;20431;-82
2023/04/15 06:02:41;;;;;;;7.97;1.85;;;5.90;53.00;;;;;;4946505;29;20051;-82
2023/04/15 06:05:10;;;;;;;5.25;1.35;;;6.00;53.20;;;;;;4936431;29;20066;-80
2023/04/15 06:07:39;;;;;;;5.78;1.50;;;6.20;53.30;;;;;;4951824;29;20053;-80
2023/04/15 06:10:09;;;;;;;4.97;1.95;;;6.30;52.50;;;;;;4952229;28;20046;-81
2023/04/15 06:12:38;;;;;;;4.93;1.90;;;6.40;52.60;;;;;;4947868;29;20085;-80
2023/04/15 06:15:09;;;;;;;14.90;5.65;;;6.50;51.90;;;;;;4949774;29;20051;-78
2023/04/15 06:17:48;;;;;;;8.27;1.95;;;6.60;51.70;;;;;;4941289;29;20052;-80
2023/04/15 06:20:18;;;;;;;1.75;1.15;;;6.80;51.40;;;;;;4919527;29;20062;-79
2023/04/15 06:22:47;;;;;;;2.33;1.48;;;6.90;51.30;;;;;;4933043;29;20067;-79
2023/04/15 06:25:28;;;;;;;5.25;1.67;;;6.90;50.90;;;;;;4943675;29;20051;-79
2023/04/15 06:28:02;;;;;;;3.00;1.50;;;6.90;50.80;;;;;;4959605;28;20066;-80
2023/04/15 06:30:35;;;;;;;10.98;1.50;;;7.20;50.60;;;;;;4951385;29;20048;-82
2023/04/15 06:33:06;;;;;;;6.50;1.30;;;7.40;50.30;;;;;;4958957;28;20059;-81
2023/04/15 06:35:35;;;;;;;4.07;1.10;;;7.40;50.10;;;;;;4935227;29;20060;-80
2023/04/15 06:38:19;;;;;;;;;;;;;;;;;;;;;
2023/04/15 06:40:51;;;;;;;7.38;2.22;;;7.60;49.60;;;;;;4932984;29;20058;-81
2023/04/15 06:43:20;;;;;;;3.58;1.63;;;7.80;50.00;;;;;;4935009;29;20066;-80
2023/04/15 06:45:58;;;;;;;2.97;1.65;;;8.10;49.20;;;;;;4939132;29;20067;-79
2023/04/15 06:48:31;;;;;;;7.30;1.83;;;8.10;48.40;;;;;;4947935;29;20055;-81
2023/04/15 06:51:00;;;;;;;2.55;1.10;;;8.10;48.40;;;;;;4954698;29;20412;-79
2023/04/15 06:53:29;;;;;;;3.88;1.42;;;8.20;48.60;;;;;;4938445;29;20055;-81
2023/04/15 06:55:58;;;;;;;5.65;1.55;;;8.30;48.00;;;;;;4952541;29;20059;-83
2023/04/15 06:58:26;;;;;;;3.70;1.38;;;8.10;47.90;;;;;;4945581;28;20081;-83
2023/04/15 07:00:56;;;;;;;7.35;1.27;;;8.10;48.30;;;;;;4957080;28;20069;-81
2023/04/15 07:03:28;;;;;;;3.83;1.60;;;8.20;48.90;;;;;;4955029;29;20043;-83
2023/04/15 07:05:58;;;;;;;2.03;1.27;;;8.00;47.90;;;;;;4932263;29;20150;-81
2023/04/15 07:08:31;;;;;;;7.45;1.90;;;8.10;48.30;;;;;;4955963;29;20054;-81
2023/04/15 07:11:02;;;;;;;10.50;1.80;;;8.20;48.10;;;;;;4957770;29;20166;-83
2023/04/15 07:13:35;;;;;;;3.65;1.40;;;8.30;48.10;;;;;;4953015;29;20505;-84
2023/04/15 07:16:07;;;;;;;4.53;1.60;;;8.40;47.20;;;;;;4961615;28;20433;-82
2023/04/15 07:18:37;;;;;;;2.20;1.50;;;8.40;47.50;;;;;;4960876;28;20518;-79
2023/04/15 07:21:07;;;;;;;7.07;1.95;;;8.70;48.10;;;;;;4933912;29;20069;-83
2023/04/15 07:23:36;;;;;;;5.25;2.13;;;8.90;47.20;;;;;;4956571;29;20055;-81
2023/04/15 07:26:05;;;;;;;8.45;1.95;;;8.90;47.00;;;;;;4954740;29;20043;-78
2023/04/15 07:28:34;;;;;;;8.70;2.08;;;9.10;47.10;;;;;;4955723;29;20050;-79
2023/04/15 07:31:03;;;;;;;5.63;1.77;;;9.30;47.10;;;;;;4952640;29;20054;-80
2023/04/15 07:33:32;;;;;;;13.55;2.30;;;9.30;46.70;;;;;;4953740;28;20067;-80
2023/04/15 07:36:02;;;;;;;7.38;2.70;;;9.50;47.20;;;;;;4940917;29;20055;-81
2023/04/15 07:38:33;;;;;;;7.72;2.53;;;9.60;46.30;;;;;;4953130;28;20050;-81
2023/04/15 07:41:01;;;;;;;4.10;2.38;;;9.60;46.30;;;;;;4951184;29;20063;-83
2023/04/15 07:43:30;;;;;;;10.35;2.90;;;9.60;46.20;;;;;;4954182;29;20043;-83
2023/04/15 07:46:00;;;;;;;8.07;2.08;;;9.60;45.90;;;;;;4954769;29;20051;-85
2023/04/15 07:48:29;;;;;;;3.67;2.35;;;9.70;46.70;;;;;;4955824;29;20058;-83
2023/04/15 07:50:57;;;;;;;12.30;2.85;;;9.70;46.00;;;;;;4953605;28;20045;-85
2023/04/15 07:53:26;;;;;;;5.40;2.30;;;9.70;46.30;;;;;;4945644;29;20062;-83
2023/04/15 07:55:57;;;;;;;9.88;2.95;;;9.90;46.10;;;;;;4953582;29;20062;-83
2023/04/15 07:58:26;;;;;;;8.80;2.25;;;10.10;45.40;;;;;;4954054;28;20066;-83
2023/04/15 08:00:55;;;;;;;11.15;2.40;;;10.30;45.70;;;;;;4937112;29;20058;-84
2023/04/15 08:03:25;;;;;;;3.63;2.50;;;10.40;46.30;;;;;;4928921;29;20055;-84
2023/04/15 08:05:57;;;;;;;6.57;2.08;;;10.50;45.50;;;;;;4955880;29;20676;-85
2023/04/15 08:08:26;;;;;;;7.32;3.00;;;10.50;45.80;;;;;;4938582;29;20059;-81
2023/04/15 08:11:06;;;;;;;8.70;2.60;;;10.50;45.10;;;;;;4945060;29;20066;-83
2023/04/15 08:13:53;;;;;;;10.43;2.47;;;10.50;45.50;;;;;;4951108;29;20060;-83
2023/04/15 08:16:26;;;;;;;6.95;2.17;;;10.30;45.50;;;;;;4941878;29;20055;-87
2023/04/15 08:18:56;;;;;;;;;;;10.30;45.50;;;;;;4964217;28;20147;-88
2023/04/15 08:21:30;;;;;;;7.05;2.53;;;10.20;45.60;;;;;;4950542;28;19932;-88
2023/04/15 08:24:02;;;;;;;4.95;2.25;;;10.30;46.20;;;;;;4956258;28;20407;-81
2023/04/15 08:26:34;;;;;;;9.07;3.10;;;10.40;45.60;;;;;;4974023;28;20050;-82
2023/04/15 08:29:03;;;;;;;5.32;2.58;;;10.30;46.00;;;;;;4952975;28;20063;-82
2023/04/15 08:31:33;;;;;;;3.75;2.60;;;10.40;46.70;;;;;;4941718;29;20059;-85
2023/04/15 08:34:01;;;;;;;4.85;2.05;;;10.50;45.30;;;;;;4944318;29;20061;-79
2023/04/15 08:36:31;;;;;;;5.43;2.10;;;10.50;45.80;;;;;;4952482;29;20053;-84
2023/04/15 08:39:01;;;;;;;7.65;2.53;;;10.70;45.60;;;;;;4952910;29;20059;-82
2023/04/15 08:41:40;;;;;;;6.47;2.65;;;10.70;44.80;;;;;;4954732;29;20057;-81
2023/04/15 08:44:10;;;;;;;4.63;2.33;;;10.80;44.90;;;;;;4954320;28;20065;-82
2023/04/15 08:46:39;;;;;;;2.95;1.75;;;10.90;44.70;;;;;;4954185;29;20102;-81
2023/04/15 08:49:12;;;;;;;6.10;2.50;;;11.00;43.40;;;;;;4953062;29;20047;-82
2023/04/15 08:51:44;;;;;;;9.52;2.28;;;10.90;43.00;;;;;;4921072;29;20059;-82
2023/04/15 08:54:13;;;;;;;3.17;2.08;;;11.00;44.30;;;;;;4953523;29;20051;-84
2023/04/15 08:56:43;;;;;;;7.78;1.73;;;11.40;44.00;;;;;;4954404;29;20053;-87
2023/04/15 08:59:12;;;;;;;9.10;2.40;;;11.70;44.10;;;;;;4944876;29;20051;-85
2023/04/15 09:01:41;;;;;;;11.55;2.30;;;11.80;43.00;;;;;;4948485;29;20073;-82
2023/04/15 09:04:12;;;;;;;8.90;2.95;;;11.80;42.50;;;;;;4954673;29;20051;-87
2023/04/15 09:06:41;;;;;;;8.65;2.88;;;11.90;42.80;;;;;;4955063;29;20055;-83
2023/04/15 09:09:14;;;;;;;5.25;2.20;;;12.20;42.40;;;;;;4936031;29;20530;-83
2023/04/15 09:11:44;;;;;;;8.05;2.35;;;12.30;42.20;;;;;;4935909;29;20058;-82
2023/04/15 09:14:16;;;;;;;7.45;2.13;;;12.60;41.90;;;;;;4944682;29;20053;-83
2023/04/15 09:16:58;;;;;;;3.85;2.20;;;12.60;41.50;;;;;;4935894;29;20058;-83
2023/04/15 09:19:27;;;;;;;11.25;2.13;;;12.80;41.90;;;;;;4953117;29;20059;-81
2023/04/15 09:22:00;;;;;;;6.80;2.22;;;13.00;41.80;;;;;;4935944;29;20058;-80
2023/04/15 09:24:37;;;;;;;;;;;13.10;41.10;;;;;;4953568;29;20075;-83
2023/04/15 09:27:23;;;;;;;6.63;2.95;;;13.10;40.80;;;;;;4951290;29;20345;-81
2023/04/15 09:29:55;;;;;;;7.47;3.13;;;13.10;41.50;;;;;;4948871;29;20063;-83
2023/04/15 09:32:26;;;;;;;8.77;2.70;;;13.00;39.50;;;;;;4932982;29;20060;-82
2023/04/15 09:34:58;;;;;;;7.47;2.45;;;12.80;40.40;;;;;;4945542;29;20713;-80
2023/04/15 09:37:36;;;;;;;6.22;2.25;;;12.70;41.50;;;;;;4943432;29;20059;-81
2023/04/15 09:40:09;;;;;;;5.88;2.60;;;12.70;41.90;;;;;;4936683;29;20048;-81
2023/04/15 09:42:54;;;;;;;;;;;12.80;41.60;;;;;;4942929;29;20055;-81
2023/04/15 09:45:25;;;;;;;5.28;2.67;;;12.60;42.40;;;;;;4934236;29;19927;-81
2023/04/15 09:47:58;;;;;;;7.97;2.80;;;12.50;43.20;;;;;;4934519;29;20047;-83
2023/04/15 09:50:29;;;;;;;9.02;2.78;;;12.30;42.30;;;;;;4942558;28;20051;-80
2023/04/15 09:52:58;;;;;;;13.52;2.38;;;12.30;43.20;;;;;;4933806;29;20524;-82
2023/04/15 09:55:27;;;;;;;5.28;2.30;;;12.30;41.90;;;;;;4946184;29;20055;-83
2023/04/15 09:57:58;;;;;;;5.30;2.38;;;12.20;41.80;;;;;;4953341;29;20047;-81
2023/04/15 10:00:29;;;;;;;6.28;2.42;;;12.30;41.90;;;;;;4954515;28;20050;-82
2023/04/15 10:03:00;;;;;;;6.07;2.50;;;12.20;42.20;;;;;;4948059;29;20057;-81
2023/04/15 10:05:30;;;;;;;10.93;3.22;;;12.30;42.70;;;;;;4948301;29;20051;-81
2023/04/15 10:08:01;;;;;;;14.88;3.55;;;12.60;43.50;;;;;;4951025;29;20062;-80
2023/04/15 10:10:34;;;;;;;11.80;2.65;;;12.80;42.00;;;;;;4950280;29;20538;-85
2023/04/15 10:13:15;;;;;;;13.63;5.60;;;12.80;41.60;;;;;;4946666;29;20052;-88
2023/04/15 10:15:50;;;;;;;7.82;2.65;;;12.90;41.60;;;;;;4950189;29;20061;-86
2023/04/15 10:18:21;;;;;;;14.88;2.47;;;13.20;41.30;;;;;;4951030;28;20488;-85
2023/04/15 10:20:51;;;;;;;3.28;1.70;;;13.40;40.10;;;;;;4937553;29;20431;-86
2023/04/15 10:23:20;;;;;;;5.85;2.38;;;13.40;39.30;;;;;;4956073;28;20066;-88
2023/04/15 10:25:52;;;;;;;2.30;1.58;;;13.20;39.40;;;;;;4950615;29;20050;-80
2023/04/15 10:28:22;;;;;;;2.75;1.90;;;13.20;39.60;;;;;;4952615;29;20043;-81
2023/04/15 10:30:57;;;;;;;11.95;2.30;;;13.30;39.10;;;;;;4935505;29;20051;-80
2023/04/15 10:33:27;;;;;;;6.00;1.85;;;13.40;39.30;;;;;;4950921;29;20058;-80
2023/04/15 10:35:58;;;;;;;5.95;1.80;;;13.50;38.90;;;;;;4950797;29;20524;-79
2023/04/15 10:38:35;;;;;;;8.98;2.42;;;13.40;38.90;;;;;;4956181;29;20065;-84
2023/04/15 10:41:15;;;;;;;6.15;1.70;;;13.40;39.40;;;;;;4955768;29;20056;-81
2023/04/15 10:43:53;;;;;;;5.15;1.90;;;13.10;39.50;;;;;;4954442;29;20061;-81
2023/04/15 10:46:24;;;;;;;5.43;2.00;;;12.90;39.80;;;;;;4936242;29;20051;-80
2023/04/15 10:48:54;;;;;;;7.75;2.30;;;13.00;40.10;;;;;;4954988;29;20063;-90
2023/04/15 10:51:32;;;;;;;4.88;1.80;;;13.20;39.50;;;;;;4953379;28;20039;-88
2023/04/15 10:54:09;;;;;;;6.78;2.20;;;13.20;39.30;;;;;;4973227;28;20150;-88
2023/04/15 10:56:40;;;;;;;8.13;2.20;;;12.90;39.70;;;;;;4976688;28;20061;-88
2023/04/15 10:59:20;;;;;;;3.53;2.08;;;12.70;40.30;;;;;;4959618;28;20445;-81
2023/04/15 11:01:55;;;;;;;8.02;2.17;;;12.50;40.30;;;;;;4951249;29;20055;-80
2023/04/15 11:04:59;;;;;;;7.70;1.85;;;12.50;41.20;;;;;;4952131;29;20050;-83
2023/04/15 11:07:38;;;;;;;8.60;2.40;;;12.40;39.60;;;;;;4953761;29;20388;-88
2023/04/15 11:10:55;;;;;;;16.25;2.08;;;12.10;39.80;;;;;;4954776;29;20059;-82
2023/04/15 11:13:47;;;;;;;6.95;2.72;;;12.10;40.50;;;;;;4955179;29;20066;-79
2023/04/15 11:16:21;;;;;;;5.32;1.95;;;12.00;40.40;;;;;;4956975;29;20062;-82
2023/04/15 11:18:56;;;;;;;12.30;2.63;;;11.90;40.70;;;;;;4940446;29;20061;-82
2023/04/15 11:21:27;;;;;;;3.72;2.40;;;11.70;41.30;;;;;;4952265;29;20095;-82
2023/04/15 11:23:56;;;;;;;5.18;2.67;;;11.50;42.00;;;;;;4954987;29;20055;-80
2023/04/15 11:26:28;;;;;;;7.25;2.00;;;11.40;42.20;;;;;;4953972;29;20049;-81
2023/04/15 11:28:58;;;;;;;6.68;2.17;;;11.10;42.90;;;;;;4949845;29;20082;-83
2023/04/15 11:31:31;;;;;;;11.57;2.50;;;10.90;42.60;;;;;;4937428;29;20061;-82
2023/04/15 11:34:02;;;;;;;10.45;2.15;;;10.70;43.20;;;;;;4946697;28;20056;-83
2023/04/15 11:36:31;;;;;;;3.85;1.67;;;10.80;43.40;;;;;;4940583;29;20062;-83
2023/04/15 11:39:00;;;;;;;7.28;1.88;;;10.70;42.80;;;;;;4962062;28;20465;-85
2023/04/15 11:41:29;;;;;;;11.55;2.45;;;10.60;43.40;;;;;;4932111;29;20051;-81
2023/04/15 11:43:58;;;;;;;3.55;2.03;;;10.60;43.30;;;;;;4933015;29;20085;-83
2023/04/15 11:46:31;;;;;;;6.20;2.50;;;10.60;43.60;;;;;;4953927;28;20051;-82
2023/04/15 11:49:00;;;;;;;6.93;2.20;;;10.50;43.60;;;;;;4951292;29;20061;-79
2023/04/15 11:51:33;;;;;;;11.27;2.20;;;10.50;43.70;;;;;;4953032;28;20530;-82
2023/04/15 11:54:02;;;;;;;12.63;3.00;;;10.40;44.20;;;;;;4936105;29;20062;-80
2023/04/15 11:56:30;;;;;;;7.65;2.17;;;10.30;44.40;;;;;;4921933;28;20448;-81
2023/04/15 11:59:02;;;;;;;5.45;2.15;;;10.30;43.90;;;;;;4953394;29;20082;-80
2023/04/15 12:01:36;;;;;;;3.95;2.42;;;10.40;44.50;;;;;;4917925;29;20043;-81
2023/04/15 12:04:12;;;;;;;3.05;1.80;;;10.50;44.90;;;;;;4931676;29;20047;-80
2023/04/15 12:06:40;;;;;;;11.13;2.30;;;10.60;44.60;;;;;;4935651;29;20081;-80
2023/04/15 12:09:12;;;;;;;6.35;2.60;;;10.80;44.50;;;;;;4936074;29;20499;-78
2023/04/15 12:12:11;;;;;;;15.90;2.88;;;10.90;44.70;;;;;;4919923;29;20050;-82
2023/04/15 12:14:41;;;;;;;6.25;2.35;;;11.10;44.40;;;;;;4946838;29;20055;-83
2023/04/15 12:17:13;;;;;;;8.20;2.88;;;11.10;44.00;;;;;;4932820;29;20054;-81
2023/04/15 12:19:48;;;;;;;8.20;2.88;;;11.20;44.20;;;;;;4952498;29;20059;-81
2023/04/15 12:22:19;;;;;;;7.55;2.50;;;11.30;43.90;;;;;;4937256;29;20050;-79
2023/04/15 12:24:48;;;;;;;7.35;2.72;;;11.50;43.60;;;;;;4933818;29;20047;-83
2023/04/15 12:27:16;;;;;;;6.03;2.53;;;11.70;43.90;;;;;;4919209;29;20109;-82
2023/04/15 12:29:45;;;;;;;11.93;2.72;;;11.70;42.60;;;;;;4933130;28;20047;-83
2023/04/15 12:32:18;;;;;;;8.32;2.22;;;11.90;42.60;;;;;;4953597;28;20408;-79
2023/04/15 12:34:52;;;;;;;7.88;2.00;;;11.90;41.10;;;;;;4949041;29;20058;-82
2023/04/15 12:37:20;;;;;;;3.83;1.88;;;12.00;40.70;;;;;;4933104;29;20579;-78
2023/04/15 12:39:50;;;;;;;7.85;2.55;;;11.90;40.20;;;;;;4936995;29;20054;-79
2023/04/15 12:42:19;;;;;;;4.45;1.85;;;11.80;40.30;;;;;;4948739;29;20479;-80
2023/04/15 12:44:47;;;;;;;4.25;2.33;;;11.90;40.70;;;;;;4931584;28;20555;-80
2023/04/15 12:47:16;;;;;;;7.93;2.28;;;12.00;40.30;;;;;;4920926;28;20057;-86
2023/04/15 12:49:44;;;;;;;5.75;2.10;;;12.00;40.10;;;;;;4951948;28;20504;-79
2023/04/15 12:52:12;;;;;;;4.03;2.08;;;11.90;40.80;;;;;;4917343;29;20550;-80
2023/04/15 12:54:41;;;;;;;4.97;1.75;;;12.00;40.20;;;;;;4934389;29;20043;-78
2023/04/15 12:57:10;;;;;;;5.80;2.10;;;12.10;39.60;;;;;;4951569;29;20049;-79
2023/04/15 12:59:40;;;;;;;7.97;2.20;;;12.30;39.70;;;;;;4951149;28;20055;-78
2023/04/15 13:02:13;;;;;;;7.18;2.25;;;12.70;39.50;;;;;;4915427;29;20476;-79
2023/04/15 13:04:42;;;;;;;6.60;2.38;;;13.10;39.40;;;;;;4951906;28;20053;-80
2023/04/15 13:07:12;;;;;;;3.92;1.95;;;13.40;38.90;;;;;;4947125;28;20047;-79
2023/04/15 13:09:40;;;;;;;8.02;2.22;;;13.60;38.60;;;;;;4949326;28;20051;-80
2023/04/15 13:12:16;;;;;;;4.65;2.20;;;13.40;39.00;;;;;;4939470;28;20073;-78